Tiempo atmosférico en la estación meteorológica de Toledo, Toledo (515 m.)



Fecha
DESCASC
Temp. máxima en grados centígrados (hora)
DESCASC
Temp. mínima en grados centígrados (hora)
DESCASC
Temp. media en grados centígrados
DESCASC
Racha de viento máxima en m/sg (hora)
DESCASC
Velocidad máxima media en intervalos de 10 minutos(hora)
DESCASC
Precipitaciones diarias en mm
DESCASC
Precipitaciones de 00:00 a 06:00 en mm
DESCASC
Precipitaciones de 06:00 a 12:00 en mm
DESCASC
Precipitaciones de 12:00 a 18:00 en mm
DESCASC
Precipitaciones de 18:00 a 24:00 en mm
DESCASC
15-08-2019 37.8 (19:10) 19.6 (07:50) 28.7 7.5 (17:30) 4.17 (18:20) 0 0 0 0 0
14-08-2019 35.6 (19:20) 15.9 (00:00) 25.7 7.78 (17:10) 4.72 (16:10) 0 0 0 0 0
13-08-2019 32.4 (18:00) 17.5 (00:00) 25 8.33 (04:20) 5 (04:20) 0 0 0 0 0
12-08-2019 29.9 (18:00) 15.5 (00:00) 22.7 9.17 (04:00) 5.83 (03:50) 0 0 0 0 0
11-08-2019 30.9 (17:00) 19.7 (00:00) 25.3 13.33 (17:20) 7.78 (16:30) 0 0 0 0 0
10-08-2019 33.9 (18:00) 17.9 (00:00) 25.9 9.17 (17:10) 5.83 (20:20) 0 0 0 0 0
09-08-2019 33.4 (16:40) 21.9 (00:00) 27.7 14.17 (19:40) 9.72 (19:30) 0 0 0 0 0
08-08-2019 36 (18:00) 19.6 (00:00) 27.8 13.61 (17:40) 7.5 (18:40) 0 0 0 0 0
07-08-2019 29.1 (00:00) 23 (00:00) 26.1 12.5 (14:20) 7.78 (15:20) 0 0 0 0 0
06-08-2019 38 (17:30) 22.5 (00:00) 30.3 11.67 (18:50) 6.94 (19:00) 0 0 0 0 0
05-08-2019 38.3 (17:50) 21.9 (00:00) 30.1 10 (17:50) 6.39 (17:50) 0 0 0 0 0
04-08-2019 37.8 (17:00) 21.8 (00:00) 29.8 11.94 (14:40) 6.94 (15:00) 0 0 0 0 0
03-08-2019 38.2 (17:10) 19.8 (00:00) 29 10.28 (18:50) 5.83 (19:20) 0 0 0 0 0
02-08-2019 37.8 (17:20) 20.1 (00:00) 28.9 8.89 (16:10) 5.28 (17:30) 0 0 0 0 0
01-08-2019 36.2 (18:10) 20.4 (00:00) 28.3 11.39 (00:20) 7.5 (00:20) 0 0 0 0 0
31-07-2019 37.4 (18:30) 19.4 (00:00) 28.4 11.67 (20:10) 7.22 (22:50) 0 0 0 0 0
30-07-2019 33.2 (18:40) 17 (00:00) 25.1 10.28 (04:30) 6.67 (04:10) 0 0 0 0 0
29-07-2019 34 (17:40) 20.9 (00:00) 27.4 13.06 (19:10) 8.89 (17:20) 0 0 0 0 0
28-07-2019 32.3 (18:10) 16.8 (00:00) 24.5 8.61 (15:40) 5 (15:40) 0 0 0 0 0
27-07-2019 27.4 (17:50) 18 (00:00) 22.7 17.22 (15:10) 11.67 (15:10) 0 0 0 0 0
26-07-2019 32.1 (17:30) 23.1 (00:00) 27.6 14.17 (18:40) 8.89 (17:50) 0 0 0 0 0
25-07-2019 38.7 (17:30) 23.5 (00:00) 31.1 12.78 (15:30) 8.61 (19:40) 0 0 0 0 0
24-07-2019 39.5 (17:40) 20.2 (00:00) 29.9 8.61 (17:40) 5.28 (00:30) 0 0 0 0 0
23-07-2019 40.5 (18:00) 21.4 (00:00) 30.9 24.72 (18:40) 12.22 (18:50) 7.6 1 0 0 6.6
22-07-2019 40.1 (17:50) 23.4 (00:00) 31.7 14.44 (02:30) 9.72 (02:30) 0 0 0 0 0
21-07-2019 40.8 (18:20) 24.4 (00:00) 32.6 11.39 (23:59) 7.5 (23:50) 0 0 0 0 0
20-07-2019 40 (16:50) 22.9 (07:30) 31.4 9.17 (19:40) 5.83 (19:40) 0 0 0 0 0
19-07-2019 39.6 (16:20) 22.1 (00:00) 30.8 8.33 (05:50) 5.28 (08:50) 0 0 0 0 0

Gráficas

Temp. máximas Temp. mínimas Temp. medias Precipitaciones Rachas de viento máximas Velocidades máximas media en intervalos de 10 minutos

Datos horarios

Fecha y hora oficial Temperatura (ºC) Velocidad del viento (km/h) Dirección del viento Racha (km/h) Dirección de racha Precipitación (mm) Presión (hPa) Tendencia (hPa) Humedad (%)
2019-08-17 23:00:00 30.2 2 Sur 17 Noroeste 0 953.2 0.6 18
2019-08-17 22:00:00 32.4 11 Noroeste 22 Noroeste 0 953 0.2 15
2019-08-17 21:00:00 35.1 15 Noroeste 32 Oeste 0 952.7 -0.4 14
2019-08-17 20:00:00 37.1 21 Oeste 36 Oeste 0 952.6 -0.9 13
2019-08-17 19:00:00 38.4 21 Oeste 40 Oeste 0 952.8 -1.3 12
2019-08-17 18:00:00 38.7 22 Oeste 42 Oeste 0 953.1 -1.6 12
2019-08-17 17:00:00 38.5 26 Oeste 45 Oeste 0 953.5 -1.9 13
2019-08-17 16:00:00 37.8 27 Oeste 41 Oeste 0 954.1 -2 16
2019-08-17 15:00:00 37.7 17 Noroeste 36 Noroeste 0 954.7 -1.9 17
2019-08-17 14:00:00 36.9 13 Oeste 28 Oeste 0 955.4 -1.4 17
2019-08-17 13:00:00 35.8 13 Oeste 25 Oeste 0 956.1 -0.8 18
2019-08-17 12:00:00 33.8 7 Sur 14 Oeste 0 956.6 -0.1 21
2019-08-17 11:00:00 31.3 6 Sudeste 12 Sur 0 956.8 0.6 24
2019-08-17 10:00:00 28.2 4 Sur 7 Sur 0 956.9 0.8 29
2019-08-17 09:00:00 25.8 2 Sur 5 Sur 0 956.7 0.7 32
2019-08-17 08:00:00 22.5 4 Noroeste 8 Sur 0 956.2 0.1 36
2019-08-17 07:00:00 23.7 3 Este 9 Nordeste 0 956.1 0 32
2019-08-17 06:00:00 24 5 Sur 10 Norte 0 956 0.1 35
2019-08-17 05:00:00 25.3 4 Noroeste 8 Oeste 0 956.1 0.2 30
2019-08-17 04:00:00 25.8 6 Oeste 9 Oeste 0 956.1 0.1 30
2019-08-17 03:00:00 26.6 4 Noroeste 6 Noroeste 0 955.9 0.1 30
2019-08-17 02:00:00 27.7 6 Noroeste 8 Noroeste 0 955.9 0.1 28
2019-08-17 01:00:00 28.5 4 Noroeste 7 Norte 0 956 0.9 28
2019-08-17 00:00:00 29.5 2 Sur 13 Noroeste 0 955.8 1.2 27
2019-08-16 23:00:00 30.9 8 Noroeste 17 Oeste 0 955.8 1.6 25
2019-08-16 22:00:00 32.6 10 Oeste 24 Noroeste 0 955.1 0.9 23
2019-08-16 21:00:00 34.8 16 Noroeste 30 Noroeste 0 954.6 0.1 21
2019-08-16 20:00:00 36.8 17 Noroeste 32 Oeste 0 954.2 -0.8 20
2019-08-16 19:00:00 37.9 14 Noroeste 39 Noroeste 0 954.2 -1.4 18
2019-08-16 18:00:00 38 19 Oeste 34 Oeste 0 954.5 -1.9 18
2019-08-16 17:00:00 37.9 21 Oeste 34 Oeste 0 955 -2.1 18
2019-08-16 16:00:00 37.6 14 Oeste 31 Oeste 0 955.6 -2.1 18
2019-08-16 15:00:00 36.7 14 Oeste 31 Oeste 0 956.4 -1.9 19
2019-08-16 14:00:00 34 7 Sudeste 16 Sudeste 0 957.1 -1.2 25
2019-08-16 13:00:00 32.3 10 Sudeste 19 Sudeste 0 957.7 -0.8 31
2019-08-16 12:00:00 29.4 13 Sudeste 20 Sudeste 0 958.3 -0.2 38
2019-08-16 11:00:00 27 13 Este 23 Sudeste 0 958.3 0.3 44
2019-08-16 10:00:00 25.5 14 Este 20 Este 0 958.5 0.8 47
2019-08-16 09:00:00 23.6 9 Este 14 Este 0 958.5 1 53
2019-08-16 08:00:00 20.8 10 Este 14 Este 0 958 0.4 55
2019-08-16 07:00:00 21.4 10 Este 19 Este 0 957.7 0.3 52
2019-08-16 06:00:00 22.3 4 Nordeste 8 Norte 0 957.5 0.1 47
2019-08-16 05:00:00 22.8 4 Norte 15 Este 0 957.6 0 45
2019-08-16 04:00:00 24.8 10 Nordeste 23 Este 0 957.4 0.1 41
2019-08-16 03:00:00 26.2 13 Nordeste 24 Nordeste 0 957.4 0.4 38
2019-08-16 02:00:00 27.2 3 Sudeste 19 Norte 0 957.6 1 29
2019-08-16 01:00:00 27.5 8 Norte 18 Norte 0 957.3 1.2 26
2019-08-16 00:00:00 28.5 3 Sudoeste 13 Norte 0 957 1.1 26
2019-08-15 23:00:00 30.4 2 Sur 8 Sudoeste 0 956.6 0.9 24
2019-08-15 22:00:00 32 7 Norte 9 Noroeste 0 956.1 0.2 21
2019-08-15 21:00:00 34.8 6 Noroeste 24 Oeste 0 955.9 -0.1 18
2019-08-15 20:00:00 36.5 11 Noroeste 26 Noroeste 0 955.7 -0.8 17
2019-08-15 19:00:00 37.6 10 Noroeste 25 Noroeste 0 955.9 -1.3 16
2019-08-15 18:00:00 37.2 8 Norte 27 Noroeste 0 956 -1.7 16
2019-08-15 17:00:00 37 8 Norte 27 Noroeste 0 956.5 -1.7 17
2019-08-15 16:00:00 36.5 10 Norte 26 Norte 0 957.2 -1.6 15
2019-08-15 15:00:00 36.1 12 Noroeste 22 Noroeste 0 957.7 -1.7 17
2019-08-15 14:00:00 35.2 10 Sur 19 Sur 0 958.2 -1.3 19
2019-08-15 13:00:00 33.5 9 Sur 17 Sur 0 958.8 -0.7 19
2019-08-15 12:00:00 30.1 5 Sudeste 14 Sudeste 0 959.4 -0.1 21
2019-08-15 11:00:00 26.8 10 Sudeste 16 Sudeste 0 959.5 0.3 24
2019-08-15 10:00:00 23.8 8 Este 16 Sudeste 0 959.5 1 27
2019-08-15 09:00:00 21.4 6 Este 10 Sudeste 0 959.5 1.4 33
2019-08-15 08:00:00 19.6 0 Calma 10 Este 0 959.2 1.2 42
2019-08-15 07:00:00 20.9 6 Este 11 Este 0 958.5 0.4 40
2019-08-15 06:00:00 22.2 2 Sudeste 5 Nordeste 0 958.1 -0.1 36
2019-08-15 05:00:00 21.8 2 Sudoeste 6 Sur 0 958 -0.5 29
2019-08-15 04:00:00 23.1 2 Sudoeste 6 Norte 0 958.1 -0.3 27
2019-08-15 03:00:00 24.1 4 Oeste 6 Noroeste 0 958.2 -0.2 24
2019-08-15 02:00:00 24.8 4 Noroeste 6 Oeste 0 958.5 0.4 23
2019-08-15 01:00:00 25.6 4 Oeste 6 Sur 0 958.4 0.9 22
2019-08-15 00:00:00 27.5 2 Nordeste 6 Sudeste 0 958.4 1.3 20
2019-08-14 23:00:00 28.4 4 Sur 8 Norte 0 958.1 1.2 19
2019-08-14 22:00:00 30.2 8 Norte 8 Norte 0 957.5 0.2 17
2019-08-14 21:00:00 33.6 4 Oeste 17 Oeste 0 957.1 -0.4 14
2019-08-14 20:00:00 34.9 10 Noroeste 19 Noroeste 0 956.9 -1 13
2019-08-14 19:00:00 35.3 13 Oeste 23 Norte 0 957.3 -1.1 12
2019-08-14 18:00:00 35.2 15 Norte 28 Noroeste 0 957.5 -1.5 13
2019-08-14 17:00:00 35.2 9 Noroeste 24 Oeste 0 957.9 -1.8 13
2019-08-14 16:00:00 34.5 8 Oeste 27 Noroeste 0 958.4 -1.8 14
2019-08-14 15:00:00 32.9 11 Norte 24 Oeste 0 959 -1.7 14
2019-08-14 14:00:00 32.3 9 Sudoeste 20 Sudoeste 0 959.7 -1 18
2019-08-14 13:00:00 29.9 9 Sudeste 20 Sudeste 0 960.2 -0.6 28
2019-08-14 12:00:00 27.2 6 Este 16 Este 0 960.7 0.1 33
2019-08-14 11:00:00 23.9 8 Sudeste 18 Sudeste 0 960.7 0.5 32
2019-08-14 10:00:00 21.4 10 Este 17 Este 0 960.8 0.9 42
2019-08-14 09:00:00 19 4 Sudeste 9 Este 0 960.6 0.6 32
2019-08-14 08:00:00 16 3 Sudeste 10 Este 0 960.2 0.6 36
2019-08-14 07:00:00 16.8 6 Este 7 Este 0 959.9 0.2 33
2019-08-14 06:00:00 18.7 4 Este 7 Este 0 960 0.4 29
2019-08-14 05:00:00 18.4 6 Este 8 Este 0 959.6 0.2 30
2019-08-14 04:00:00 19.9 0 Calma 10 Nordeste 0 959.7 0.7 27
2019-08-14 03:00:00 21.4 5 Este 11 Nordeste 0 959.6 0.9 24
2019-08-14 02:00:00 22.5 6 Nordeste 12 Nordeste 0 959.4 0.9 23
2019-08-14 01:00:00 23.8 8 Nordeste 20 Nordeste 0 959 1.3 21
2019-08-14 00:00:00 24.3 15 Norte 20 Norte 0 958.7 1.4 20
2019-08-13 23:00:00 25.5 10 Norte 18 Norte 0 958.5 1.3 21
2019-08-13 22:00:00 27.7 4 Norte 5 Noroeste 0 957.7 0.4 19
2019-08-13 21:00:00 30.1 4 Noroeste 14 Noroeste 0 957.3 -0.1 17
2019-08-13 20:00:00 31.4 11 Oeste 23 Noroeste 0 957.2 -0.7 14
2019-08-13 19:00:00 32 10 Noroeste 24 Oeste 0 957.3 -1.1 16
2019-08-13 18:00:00 32.4 9 Noroeste 25 Sudoeste 0 957.4 -1.6 16
2019-08-13 17:00:00 31.5 13 Oeste 26 Oeste 0 957.9 -1.5 17
2019-08-13 16:00:00 31.2 10 Sudoeste 22 Noroeste 0 958.4 -1.7 20
2019-08-13 15:00:00 30 6 Sudoeste 22 Nordeste 0 959 -1.2 23
2019-08-13 14:00:00 28.4 5 Nordeste 18 Este 0 959.4 -0.9 32
2019-08-13 13:00:00 27.5 5 Nordeste 17 Sudeste 0 960.1 -0.2 37
2019-08-13 12:00:00 25.2 9 Sur 15 Sur 0 960.2 0 38
2019-08-13 11:00:00 22.9 9 Sudeste 21 Sudeste 0 960.3 0.4 37
2019-08-13 10:00:00 21.1 9 Este 16 Este 0 960.3 0.7 40
2019-08-13 09:00:00 18.7 12 Nordeste 19 Este 0 960.2 0.9 45
2019-08-13 08:00:00 17.6 8 Este 21 Este 0 959.9 0.5 47
2019-08-13 07:00:00 17.8 5 Este 16 Este 0 959.6 0.2 46
2019-08-13 06:00:00 17.7 9 Este 25 Este 0 959.3 -0.5 46
2019-08-13 05:00:00 18.3 14 Nordeste 30 Nordeste 0 959.4 -0.1 44
2019-08-13 04:00:00 19.4 12 Nordeste 22 Nordeste 0 959.4 0.4 39
2019-08-13 03:00:00 20.6 13 Nordeste 23 Nordeste 0 959.8 1.2 34
2019-08-13 02:00:00 22.1 13 Este 26 Nordeste 0 959.5 1.3 30
2019-08-13 01:00:00 23.3 11 Nordeste 27 Nordeste 0 959 1.2 24
2019-08-13 00:00:00 23.2 11 Este 18 Este 0 958.6 1.2 22
2019-08-12 23:00:00 23.5 15 Norte 23 Nordeste 0 958.2 1.2 22
2019-08-12 22:00:00 25.3 5 Norte 9 Norte 0 957.8 1 17
2019-08-12 21:00:00 27.2 5 Nordeste 17 Este 0 957.4 0.2 14
2019-08-12 20:00:00 28.4 10 Nordeste 21 Nordeste 0 957 -0.6 14
2019-08-12 19:00:00 29.4 9 Sur 25 Norte 0 956.8 -1.4 16
2019-08-12 18:00:00 29.8 7 Noroeste 25 Norte 0 957.2 -1.5 16
2019-08-12 17:00:00 28.9 5 Este 23 Este 0 957.6 -1.6 17
2019-08-12 16:00:00 28.2 7 Nordeste 27 Nordeste 0 958.2 -1.5 19
2019-08-12 15:00:00 26.7 10 Norte 24 Oeste 0 958.7 -1.3 24
2019-08-12 14:00:00 26.2 11 Norte 22 Nordeste 0 959.2 -0.7 24
2019-08-12 13:00:00 24.6 9 Norte 24 Norte 0 959.7 0.1 30
2019-08-12 12:00:00 23 11 Norte 24 Nordeste 0 960 0.7 35
2019-08-12 11:00:00 21 15 Nordeste 31 Nordeste 0 959.9 1.3 40
2019-08-12 10:00:00 19.6 17 Norte 25 Norte 0 959.6 1.5 45
2019-08-12 09:00:00 17.2 11 Nordeste 19 Nordeste 0 959.3 1.4 53
2019-08-12 08:00:00 15.6 6 Norte 17 Nordeste 0 958.6 1.1 57
2019-08-12 07:00:00 16 6 Este 17 Nordeste 0 958.1 0.7 55
2019-08-12 06:00:00 16.7 4 Sudoeste 21 Norte 0 957.9 0.3 47
2019-08-12 05:00:00 17.2 12 Norte 32 Norte 0 957.5 -0.4 45
2019-08-12 04:00:00 18 20 Norte 33 Norte 0 957.4 -0.6 42
2019-08-12 03:00:00 18.9 19 Norte 30 Norte 0 957.6 -0.2 37
2019-08-12 02:00:00 20.6 19 Norte 32 Norte 0 957.9 0.4 30
2019-08-12 01:00:00 21.5 15 Noroeste 28 Norte 0 958 1.2 26
2019-08-12 00:00:00 22.5 20 Noroeste 30 Norte 0 957.8 1.9 26
2019-08-11 23:00:00 23.2 13 Noroeste 26 Oeste 0 957.5 2.1 23
2019-08-11 22:00:00 24.3 18 Oeste 31 Oeste 0 956.8 1.4 22
2019-08-11 21:00:00 25.8 19 Oeste 40 Noroeste 0 955.9 0.6 21
2019-08-11 20:00:00 27.6 25 Noroeste 43 Noroeste 0 955.4 0.1 22
2019-08-11 19:00:00 28.7 23 Oeste 39 Noroeste 0 955.4 -0.5 20
2019-08-11 18:00:00 29.9 27 Oeste 48 Noroeste 0 955.3 -1 20
2019-08-11 17:00:00 30.8 28 Oeste 42 Noroeste 0 955.3 -1.4 22
2019-08-11 16:00:00 29.9 21 Noroeste 42 Oeste 0 955.9 -1.2 25
2019-08-11 15:00:00 29.1 26 Noroeste 43 Noroeste 0 956.3 -1.2 26
2019-08-11 14:00:00 29.2 22 Oeste 38 Noroeste 0 956.7 -0.7 28
2019-08-11 13:00:00 27.6 15 Oeste 30 Oeste 0 957.1 -0.1 32
2019-08-11 12:00:00 25.5 17 Oeste 28 Noroeste 0 957.5 0.9 39
2019-08-11 11:00:00 24.3 16 Oeste 34 Noroeste 0 957.4 1.1 41
2019-08-11 10:00:00 23 19 Oeste 27 Oeste 0 957.2 1.2 45
2019-08-11 09:00:00 21.8 4 Noroeste 6 Noroeste 0 956.6 0.3 45
2019-08-11 08:00:00 19.7 0 Calma 8 Sur 0 956.3 0.4 48
2019-08-11 07:00:00 20.4 3 Sudoeste 11 Noroeste 0 956 0.4 46
2019-08-11 06:00:00 20.6 6 Oeste 18 Oeste 0 956.3 0.6 43
2019-08-11 05:00:00 21.3 9 Noroeste 17 Noroeste 0 955.9 -0.2 36
2019-08-11 04:00:00 21.9 5 Noroeste 10 Noroeste 0 955.6 -0.8 34
2019-08-11 03:00:00 22.5 3 Oeste 8 Sudoeste 0 955.7 -0.8 31
2019-08-11 02:00:00 23.1 6 Sudoeste 9 Sudoeste 0 956.1 -0.4 30
2019-08-11 01:00:00 24 6 Oeste 10 Sudoeste 0 956.4 0.2 27
2019-08-11 00:00:00 24.8 4 Oeste 20 Oeste 0 956.5 0.6 25
2019-08-10 23:00:00 26.3 16 Oeste 25 Noroeste 0 956.5 1 23
2019-08-10 22:00:00 27.6 16 Oeste 26 Oeste 0 956.2 0.7 24
2019-08-10 21:00:00 29.6 16 Oeste 31 Noroeste 0 955.9 -0.1 23
2019-08-10 20:00:00 32.1 19 Noroeste 32 Oeste 0 955.5 -1.1 21
2019-08-10 19:00:00 33.3 17 Noroeste 30 Oeste 0 955.5 -1.9 21
2019-08-10 18:00:00 33.9 13 Oeste 33 Noroeste 0 956 -2.2 22
2019-08-10 17:00:00 33.3 13 Noroeste 29 Oeste 0 956.6 -2.3 25
2019-08-10 16:00:00 32.5 13 Oeste 26 Oeste 0 957.4 -1.9 27
2019-08-10 15:00:00 31.5 13 Noroeste 28 Oeste 0 958.2 -1.6 27
2019-08-10 14:00:00 29.5 7 Sudoeste 25 Oeste 0 958.9 -0.9 28
2019-08-10 13:00:00 27.8 9 Noroeste 20 Noroeste 0 959.3 -0.8 31
2019-08-10 12:00:00 26.2 11 Oeste 23 Oeste 0 959.8 0 38
2019-08-10 11:00:00 24.4 10 Noroeste 20 Oeste 0 959.8 0.3 50
2019-08-10 10:00:00 22.8 8 Noroeste 15 Oeste 0 960.1 0.9 56
2019-08-10 09:00:00 20.5 3 Oeste 5 Sudoeste 0 959.8 1 67
2019-08-10 08:00:00 18.1 3 Oeste 6 Noroeste 0 959.5 1 79
2019-08-10 07:00:00 18.1 3 Noroeste 9 Oeste 0 959.2 0.6 80
2019-08-10 06:00:00 18.2 6 Oeste 10 Noroeste 0 958.8 0.2 78
2019-08-10 05:00:00 18.5 7 Noroeste 13 Noroeste 0 958.5 -0.2 75
2019-08-10 04:00:00 19.4 11 Noroeste 19 Noroeste 0 958.6 0.3 71
2019-08-10 03:00:00 20 11 Noroeste 22 Noroeste 0 958.6 0.2 73
2019-08-10 02:00:00 21.2 15 Noroeste 23 Noroeste 0 958.7 0.5 71
2019-08-10 01:00:00 21.7 6 Oeste 12 Oeste 0 958.3 0.6 71
2019-08-10 00:00:00 22.3 9 Sudoeste 23 Oeste 0 958.4 1 69
2019-08-09 23:00:00 22.9 17 Oeste 31 Oeste 0 958.2 1.5 67
2019-08-09 22:00:00 23.8 21 Oeste 41 Noroeste 0 957.7 1.8 63
2019-08-09 21:00:00 24.8 27 Oeste 45 Oeste 0 957.4 1.8 60
2019-08-09 20:00:00 27.5 32 Oeste 51 Oeste 0 956.7 1 56
2019-08-09 19:00:00 31.8 28 Oeste 43 Oeste 0 955.9 0 42
2019-08-09 18:00:00 31.9 27 Oeste 41 Oeste 0 955.6 -0.7 40
2019-08-09 17:00:00 32.7 25 Oeste 40 Oeste 0 955.7 -1.1 38
2019-08-09 16:00:00 32.9 22 Oeste 43 Noroeste 0 955.9 -1.3 38
2019-08-09 15:00:00 32.3 22 Oeste 40 Oeste 0 956.3 -0.9 38
2019-08-09 14:00:00 31.5 21 Oeste 37 Noroeste 0 956.8 -0.3 40
2019-08-09 13:00:00 29.8 23 Oeste 36 Noroeste 0 957.2 0.4 43
2019-08-09 12:00:00 27.8 23 Oeste 33 Noroeste 0 957.2 0.6 50
2019-08-09 11:00:00 26.1 17 Noroeste 23 Oeste 0 957.1 1 57
2019-08-09 10:00:00 24.5 11 Oeste 28 Oeste 0 956.8 0.9 63
2019-08-09 09:00:00 23.1 14 Oeste 22 Oeste 0 956.6 1.2 68
2019-08-09 08:00:00 21.9 10 Oeste 19 Oeste 0 956.1 0.7 71
2019-08-09 07:00:00 22.3 13 Oeste 19 Oeste 0 955.9 0.5 67
2019-08-09 06:00:00 22.9 10 Oeste 20 Noroeste 0 955.4 0.1 63
2019-08-09 05:00:00 23.9 12 Oeste 23 Oeste 0 955.4 0.3 59
2019-08-09 04:00:00 24.9 19 Oeste 31 Oeste 0 955.4 0.7 56
2019-08-09 03:00:00 25.8 21 Oeste 27 Oeste 0 955.3 0.8 52
2019-08-09 02:00:00 26.8 18 Oeste 24 Oeste 0 955.1 1.1 42
2019-08-09 01:00:00 26.8 8 Noroeste 11 Oeste 0 954.7 1.1 36
2019-08-09 00:00:00 28.6 9 Oeste 18 Oeste 0 954.5 1.3 32
2019-08-08 23:00:00 29.5 12 Oeste 18 Oeste 0 954 1.1 30
2019-08-08 22:00:00 30.7 11 Oeste 33 Oeste 0 953.6 0.7 28
2019-08-08 21:00:00 33.2 20 Oeste 41 Oeste 0 953.2 0.3 25
2019-08-08 20:00:00 35 19 Oeste 39 Sudoeste 0 952.9 -0.5 23
2019-08-08 19:00:00 35.5 23 Sudoeste 46 Oeste 0 952.9 -1 23
2019-08-08 18:00:00 36 25 Oeste 49 Noroeste 0 952.9 -1.5 24
2019-08-08 17:00:00 35.2 21 Oeste 39 Oeste 0 953.4 -1.6 26
2019-08-08 16:00:00 34.9 16 Oeste 32 Oeste 0 953.9 -1.9 28
2019-08-08 15:00:00 34.1 6 Oeste 19 Oeste 0 954.4 -1.6 30
2019-08-08 14:00:00 32.5 9 Sudoeste 22 Norte 0 955 -1.2 34
2019-08-08 13:00:00 30.4 9 Oeste 22 Oeste 0 955.8 -0.4 39
2019-08-08 12:00:00 28.6 8 Noroeste 21 Noroeste 0 956 -0.1 41
2019-08-08 11:00:00 26.6 12 Noroeste 20 Oeste 0 956.2 0.4 46
2019-08-08 10:00:00 25.3 10 Oeste 16 Oeste 0 956.2 0.6 50
2019-08-08 09:00:00 22.5 4 Oeste 7 Sudoeste 0 956.1 0.5 55
2019-08-08 08:00:00 20.2 2 Norte 6 Noroeste 0 955.8 0.1 61
2019-08-08 07:00:00 19.6 6 Noroeste 8 Noroeste 0 955.6 -0.3 61
2019-08-08 06:00:00 19.6 4 Oeste 7 Noroeste 0 955.6 -0.4 61
2019-08-08 05:00:00 20 3 Oeste 5 Noroeste 0 955.7 -0.4 60
2019-08-08 04:00:00 20.3 4 Oeste 5 Noroeste 0 955.9 -0.2 59
2019-08-08 03:00:00 21.1 3 Noroeste 5 Sur 0 956 0 56
2019-08-08 02:00:00 21.4 4 Sur 11 Sudoeste 0 956.1 0.3 55
2019-08-08 01:00:00 22.3 5 Sudoeste 10 Noroeste 0 956.1 1 52
2019-08-08 00:00:00 23.1 8 Noroeste 14 Noroeste 0 956 1.2 49
2019-08-07 23:00:00 24 10 Noroeste 16 Noroeste 0 955.8 0.9 45
2019-08-07 22:00:00 25.1 10 Noroeste 20 Noroeste 0 955.1 0 42
2019-08-07 21:00:00 26 14 Oeste 23 Oeste 0 954.8 -0.5 41
2019-08-07 20:00:00 26.3 11 Oeste 24 Oeste 0 954.9 -0.5 40
2019-08-07 19:00:00 26.3 17 Oeste 28 Oeste 0 955.1 -0.3 38
2019-08-07 18:00:00 26.5 20 Oeste 35 Noroeste 0 955.3 -0.4 39
2019-08-07 17:00:00 27 21 Oeste 34 Oeste 0 955.4 -0.1 37
2019-08-07 16:00:00 26.6 18 Noroeste 40 Oeste 0 955.4 0.1 41
2019-08-07 15:00:00 26.1 25 Oeste 45 Oeste 0 955.7 0.9 44
2019-08-07 14:00:00 26.9 19 Oeste 37 Oeste 0 955.5 1 39
2019-08-07 13:00:00 26.8 15 Oeste 23 Oeste 0 955.3 1.2 40
2019-08-07 12:00:00 25.4 13 Noroeste 22 Noroeste 0 954.8 1.5 44
2019-08-07 11:00:00 24.8 16 Noroeste 25 Oeste 0 954.5 1.7 46
2019-08-07 10:00:00 24.6 15 Oeste 24 Oeste 0 954.1 1.8 48
2019-08-07 09:00:00 23.9 8 Oeste 13 Oeste 0 953.3 1.2 49
2019-08-07 08:00:00 23 5 Oeste 12 Oeste 0 952.8 0.6 49
2019-08-07 07:00:00 23.6 8 Noroeste 14 Noroeste 0 952.3 0.2 44
2019-08-07 06:00:00 23.3 4 Noroeste 13 Sudoeste 0 952.1 -0.1 47
2019-08-07 05:00:00 25.3 11 Oeste 21 Oeste 0 952.2 -0.2 42
2019-08-07 04:00:00 26 18 Oeste 25 Noroeste 0 952.1 -0.2 40
2019-08-07 03:00:00 26.7 12 Oeste 23 Oeste 0 952.2 0 34
2019-08-07 02:00:00 27.7 16 Oeste 24 Oeste 0 952.4 0.2 27
2019-08-07 01:00:00 28.1 14 Noroeste 20 Oeste 0 952.3 0.6 20
2019-08-07 00:00:00 29.1 14 Oeste 19 Oeste 0 952.2 0.8 16
2019-08-06 23:00:00 29.9 14 Oeste 28 Oeste 0 952.2 1.5 15
2019-08-06 22:00:00 31.2 18 Oeste 26 Oeste 0 951.7 0.7 14
2019-08-06 21:00:00 32.5 17 Oeste 32 Oeste 0 951.4 0.2 16
2019-08-06 20:00:00 35.6 20 Oeste 38 Oeste 0 950.7 -1 15
2019-08-06 19:00:00 36 25 Oeste 42 Oeste 0 951 -1.4 13
2019-08-06 18:00:00 37.8 15 Oeste 37 Oeste 0 951.2 -1.8 11
2019-08-06 17:00:00 37.7 15 Oeste 34 Oeste 0 951.7 -2 11
2019-08-06 16:00:00 36.5 22 Noroeste 37 Oeste 0 952.4 -1.6 15
2019-08-06 15:00:00 35.3 20 Oeste 37 Oeste 0 953 -1.5 16
2019-08-06 14:00:00 35.1 17 Oeste 31 Noroeste 0 953.7 -1.1 15
2019-08-06 13:00:00 34.3 13 Oeste 23 Oeste 0 954 -1 17
2019-08-06 12:00:00 31.9 6 Oeste 22 Oeste 0 954.5 -0.5 20
2019-08-06 11:00:00 30 9 Oeste 15 Oeste 0 954.8 0.6 21
2019-08-06 10:00:00 27 2 Oeste 7 Sur 0 955 1.2 22
2019-08-06 09:00:00 23.4 3 Sudoeste 6 Sur 0 955 1 27
2019-08-06 08:00:00 22.5 0 Calma 8 Noroeste 0 954.2 0.1 21
2019-08-06 07:00:00 23 6 Noroeste 8 Noroeste 0 953.8 -0.4 20
2019-08-06 06:00:00 23 4 Oeste 6 Noroeste 0 954 -0.2 21
2019-08-06 05:00:00 24.7 5 Noroeste 9 Norte 0 954.1 0.1 19
2019-08-06 04:00:00 24.9 6 Noroeste 10 Oeste 0 954.2 0.3 19
2019-08-06 03:00:00 25.1 4 Oeste 9 Sudoeste 0 954.2 0.5 22
2019-08-06 02:00:00 26.3 3 Noroeste 6 Noroeste 0 954 0.4 22
2019-08-06 01:00:00 27.1 3 Noroeste 13 Oeste 0 953.9 0.8 22
2019-08-06 00:00:00 28.5 10 Oeste 20 Noroeste 0 953.7 1.4 21
2019-08-05 23:00:00 30.3 15 Oeste 22 Noroeste 0 953.6 1.6 19
2019-08-05 22:00:00 31.7 15 Oeste 27 Noroeste 0 953.1 1.1 18
2019-08-05 21:00:00 34.5 18 Oeste 31 Noroeste 0 952.3 0 17
2019-08-05 20:00:00 36.6 20 Oeste 33 Oeste 0 952 -0.8 13
2019-08-05 19:00:00 37.6 17 Noroeste 33 Noroeste 0 952 -1.2 12
2019-08-05 18:00:00 37.7 23 Oeste 36 Oeste 0 952.3 -1.5 13
2019-08-05 17:00:00 37.8 15 Oeste 30 Oeste 0 952.8 -1.7 13
2019-08-05 16:00:00 37.6 12 Noroeste 29 Oeste 0 953.2 -2.3 15
2019-08-05 15:00:00 36.9 11 Sur 25 Sudoeste 0 953.8 -2.1 17
2019-08-05 14:00:00 35.9 8 Sudoeste 24 Sudoeste 0 954.5 -1.4 18
2019-08-05 13:00:00 33.9 9 Oeste 18 Oeste 0 955.5 -0.6 21
2019-08-05 12:00:00 31.5 9 Oeste 17 Noroeste 0 955.9 -0.1 22
2019-08-05 11:00:00 29 9 Oeste 18 Oeste 0 955.9 0 29
2019-08-05 10:00:00 26.3 7 Oeste 15 Oeste 0 956.1 0.6 35
2019-08-05 09:00:00 23.7 4 Oeste 6 Oeste 0 956 0.8 40
2019-08-05 08:00:00 21.9 5 Oeste 13 Oeste 0 955.9 0.7 42
2019-08-05 07:00:00 22.4 10 Oeste 12 Oeste 0 955.5 0.2 41
2019-08-05 06:00:00 23.4 8 Oeste 13 Oeste 0 955.2 -0.2 38
2019-08-05 05:00:00 24 9 Oeste 12 Oeste 0 955.2 -0.1 35
2019-08-05 04:00:00 25.1 6 Oeste 14 Oeste 0 955.3 0.2 31
2019-08-05 03:00:00 26.3 11 Oeste 29 Oeste 0 955.4 0.4 29
2019-08-05 02:00:00 27.5 13 Oeste 20 Oeste 0 955.3 0.4 22
2019-08-05 01:00:00 28 6 Oeste 9 Oeste 0 955.1 0.9 18
2019-08-05 00:00:00 29 6 Noroeste 10 Sudoeste 0 955 1.6 16
2019-08-04 23:00:00 30.2 5 Oeste 18 Oeste 0 954.9 1.8 14
2019-08-04 22:00:00 31.9 12 Oeste 19 Noroeste 0 954.2 1.2 19
2019-08-04 21:00:00 34.7 14 Oeste 25 Oeste 0 953.4 0.2 15
2019-08-04 20:00:00 36.2 18 Oeste 29 Oeste 0 953.1 -0.3 11
2019-08-04 19:00:00 37.1 19 Oeste 36 Oeste 0 953 -0.9 10
2019-08-04 18:00:00 37.2 18 Oeste 38 Oeste 0 953.2 -1.2 9
2019-08-04 17:00:00 37.8 18 Oeste 37 Oeste 0 953.4 -1.3 12
2019-08-04 16:00:00 37.4 14 Sudoeste 34 Oeste 0 953.9 -1.4 11
2019-08-04 15:00:00 35.8 25 Oeste 43 Oeste 0 954.4 -1.1 16
2019-08-04 14:00:00 35.1 17 Oeste 36 Oeste 0 954.7 -1 18
2019-08-04 13:00:00 33.8 18 Oeste 32 Oeste 0 955.3 -0.2 19
2019-08-04 12:00:00 32.4 16 Noroeste 24 Noroeste 0 955.5 0.1 23
2019-08-04 11:00:00 30.9 7 Oeste 12 Sudoeste 0 955.7 0.6 22
2019-08-04 10:00:00 28.4 3 Oeste 8 Oeste 0 955.5 0.7 23
2019-08-04 09:00:00 25 2 Noroeste 3 Norte 0 955.4 0.7 27
2019-08-04 08:00:00 22.3 0 Calma 3 Sudeste 0 955.1 0.8 31
2019-08-04 07:00:00 21.9 0 Calma 8 Sur 0 954.8 0.5 33
2019-08-04 06:00:00 23.2 10 Norte 13 Norte 0 954.7 0.8 29
2019-08-04 05:00:00 24.4 0 Calma 6 Sudeste 0 954.3 0.4 26
2019-08-04 04:00:00 25.3 4 Sur 13 Noroeste 0 954.3 0.4 25
2019-08-04 03:00:00 25.7 8 Oeste 12 Oeste 0 953.9 0.3 25
2019-08-04 02:00:00 26.4 7 Noroeste 14 Noroeste 0 953.9 0.4 26
2019-08-04 01:00:00 27.1 3 Sudoeste 8 Sur 0 953.9 1 25
2019-08-04 00:00:00 28.5 7 Oeste 15 Noroeste 0 953.6 1.4 24
2019-08-03 23:00:00 30.1 11 Noroeste 18 Oeste 0 953.5 1.6 21
2019-08-03 22:00:00 31.8 13 Oeste 25 Noroeste 0 952.9 0.9 20
2019-08-03 21:00:00 34.5 15 Oeste 30 Oeste 0 952.2 -0.2 16
2019-08-03 20:00:00 36.9 15 Oeste 34 Noroeste 0 951.9 -0.9 11
2019-08-03 19:00:00 37.6 21 Oeste 37 Oeste 0 952 -1.4 9
2019-08-03 18:00:00 37.9 17 Oeste 32 Oeste 0 952.4 -1.6 9
2019-08-03 17:00:00 37.9 17 Oeste 33 Oeste 0 952.8 -1.7 11
2019-08-03 16:00:00 36.9 14 Norte 30 Noroeste 0 953.4 -1.8 13
2019-08-03 15:00:00 36.5 10 Noroeste 27 Noroeste 0 954 -1.4 13
2019-08-03 14:00:00 35.2 8 Oeste 29 Oeste 0 954.5 -1.1 14
2019-08-03 13:00:00 33.9 6 Nordeste 18 Sudeste 0 955.2 -0.4 18
2019-08-03 12:00:00 31.4 7 Sur 13 Sudeste 0 955.4 0 30
2019-08-03 11:00:00 28 4 Sudeste 12 Sudoeste 0 955.6 0.6 38
2019-08-03 10:00:00 25.2 4 Sur 8 Sur 0 955.6 1 35
2019-08-03 09:00:00 21.9 2 Oeste 6 Sur 0 955.4 1.1 28
2019-08-03 08:00:00 19.9 2 Sudoeste 13 Este 0 955 0.8 29
2019-08-03 07:00:00 20.1 5 Sudeste 9 Este 0 954.6 0.7 27
2019-08-03 06:00:00 20.5 2 Norte 17 Nordeste 0 954.3 0.2 30
2019-08-03 05:00:00 23.3 7 Nordeste 15 Este 0 954.2 0 21
2019-08-03 04:00:00 25 3 Oeste 10 Oeste 0 953.9 -0.4 18
2019-08-03 03:00:00 24.9 4 Oeste 8 Sudoeste 0 954.1 -0.2 19
2019-08-03 02:00:00 26.3 4 Sudoeste 6 Sudoeste 0 954.2 -0.1 19
2019-08-03 01:00:00 27.7 3 Oeste 6 Oeste 0 954.3 0.7 17
2019-08-03 00:00:00 28.1 5 Oeste 9 Oeste 0 954.3 1.1 19
2019-08-02 23:00:00 29.6 5 Norte 13 Noroeste 0 954.3 1.3 15
2019-08-02 22:00:00 31.8 11 Noroeste 22 Noroeste 0 953.6 0.5 13
2019-08-02 21:00:00 34.9 13 Noroeste 28 Oeste 0 953.2 -0.1 14
2019-08-02 20:00:00 36.7 13 Oeste 28 Noroeste 0 953 -0.8 13
2019-08-02 19:00:00 37 15 Oeste 30 Oeste 0 953.1 -1.3 14
2019-08-02 18:00:00 37.6 12 Noroeste 31 Noroeste 0 953.3 -1.4 14
2019-08-02 17:00:00 37.5 14 Noroeste 32 Noroeste 0 953.8 -1.5 15
2019-08-02 16:00:00 36.8 9 Noroeste 25 Noroeste 0 954.4 -1.4 15
2019-08-02 15:00:00 35.7 8 Este 27 Norte 0 954.7 -1.2 16
2019-08-02 14:00:00 34.9 16 Noroeste 31 Noroeste 0 955.3 -0.8 16
2019-08-02 13:00:00 33.3 9 Oeste 18 Oeste 0 955.8 -0.3 19
2019-08-02 12:00:00 31.4 7 Noroeste 17 Oeste 0 955.9 0.1 24
2019-08-02 11:00:00 28.9 5 Sudoeste 12 Sur 0 956.1 0.7 29
2019-08-02 10:00:00 26.3 4 Oeste 8 Oeste 0 956.1 1.1 30
2019-08-02 09:00:00 23.6 2 Noroeste 7 Este 0 955.8 1.1 33
2019-08-02 08:00:00 20.9 6 Este 9 Este 0 955.4 0.8 37
2019-08-02 07:00:00 21.3 5 Nordeste 12 Norte 0 955 0.5 36
2019-08-02 06:00:00 21.9 2 Sudoeste 10 Noroeste 0 954.7 0.2 34
2019-08-02 05:00:00 22.4 7 Noroeste 10 Noroeste 0 954.6 0.2 32
2019-08-02 04:00:00 23.8 5 Oeste 9 Oeste 0 954.5 0 30
2019-08-02 03:00:00 24.6 6 Oeste 10 Oeste 0 954.5 0.3 28
2019-08-02 02:00:00 25.8 6 Oeste 8 Oeste 0 954.4 0.7 24
2019-08-02 01:00:00 26.5 4 Oeste 9 Oeste 0 954.5 1.6 22
2019-08-02 00:00:00 27 5 Oeste 12 Noroeste 0 954.2 1.9 25
2019-08-01 23:00:00 28.6 8 Oeste 19 Oeste 0 953.7 1.9 22
2019-08-01 22:00:00 30.6 12 Noroeste 26 Noroeste 0 952.9 1.3 19
2019-08-01 21:00:00 33.1 18 Oeste 29 Noroeste 0 952.3 0.4 17
2019-08-01 20:00:00 34.6 19 Noroeste 31 Oeste 0 951.8 -0.2 16
2019-08-01 19:00:00 35.6 14 Oeste 32 Oeste 0 951.6 -0.8 16
2019-08-01 18:00:00 36.1 20 Oeste 41 Oeste 0 951.9 -1 14
2019-08-01 17:00:00 35.5 16 Oeste 37 Oeste 0 952 -1.3 15
2019-08-01 16:00:00 35.2 19 Oeste 36 Oeste 0 952.4 -1.4 19
2019-08-01 15:00:00 34.7 14 Oeste 33 Noroeste 0 952.9 -0.9 21
2019-08-01 14:00:00 33 16 Oeste 27 Oeste 0 953.3 -0.5 23
2019-08-01 13:00:00 31.6 12 Oeste 26 Oeste 0 953.8 0.2 26
2019-08-01 12:00:00 29.6 6 Sudoeste 12 Sudoeste 0 953.8 0.2 41
2019-08-01 11:00:00 26.5 5 Oeste 11 Norte 0 953.8 0.7 48
2019-08-01 10:00:00 24.6 5 Sur 10 Sur 0 953.6 1 54
2019-08-01 09:00:00 22.6 7 Este 17 Este 0 953.6 1.3 60
2019-08-01 08:00:00 20.5 10 Este 21 Este 0 953.1 0.9 67
2019-08-01 07:00:00 20.8 15 Este 29 Este 0 952.6 0.5 66
2019-08-01 06:00:00 21.6 18 Este 34 Este 0 952.3 0.2 64
2019-08-01 05:00:00 22.4 21 Este 31 Este 0 952.2 0 62
2019-08-01 04:00:00 22.9 20 Este 30 Este 0 952.1 -0.2 61
2019-08-01 03:00:00 23.6 18 Este 32 Este 0 952.1 -0.4 60
2019-08-01 02:00:00 24.6 23 Este 40 Este 0 952.2 0.1 58
2019-08-01 01:00:00 25.8 24 Sudeste 41 Sudeste 0 952.3 1.3 55
2019-08-01 00:00:00 27.3 23 Este 39 Sudeste 0 952.5 1.9 51
2019-07-31 23:00:00 29.2 22 Este 41 Sudeste 0 952.1 1.9 45
2019-07-31 22:00:00 31.3 21 Sudeste 36 Sudeste 0 951 0.6 33
2019-07-31 21:00:00 32.9 20 Sudeste 42 Sudeste 0 950.6 -0.3 30
2019-07-31 20:00:00 36.2 15 Sudeste 25 Sudeste 0 950.2 -1.4 22
2019-07-31 19:00:00 36 12 Sudeste 27 Este 0 950.4 -2.2 23
2019-07-31 18:00:00 36.4 15 Este 28 Nordeste 0 950.9 -2.5 22
2019-07-31 17:00:00 36.2 15 Este 27 Este 0 951.6 -2.5 23
2019-07-31 16:00:00 35.7 9 Noroeste 30 Este 0 952.6 -2.1 23
2019-07-31 15:00:00 35 13 Sudeste 36 Sudeste 0 953.4 -1.9 25
2019-07-31 14:00:00 32.8 13 Este 30 Este 0 954.1 -1.5 30
2019-07-31 13:00:00 30.9 19 Este 36 Este 0 954.7 -1 36
2019-07-31 12:00:00 28.9 19 Este 37 Este 0 955.3 -0.2 44
2019-07-31 11:00:00 26.5 17 Este 31 Este 0 955.6 0.1 49
2019-07-31 10:00:00 24.2 15 Este 27 Este 0 955.7 0.1 49
2019-07-31 09:00:00 21.1 4 Sudeste 11 Sudeste 0 955.5 -0.1 49
2019-07-31 08:00:00 19.5 5 Sudeste 17 Sudeste 0 955.5 0 50
2019-07-31 07:00:00 19.8 8 Este 19 Este 0 955.6 0.2 47
2019-07-31 06:00:00 19.7 11 Este 20 Este 0 955.6 0.3 46
2019-07-31 05:00:00 19.8 11 Este 19 Este 0 955.5 0.2 46
2019-07-31 04:00:00 20.7 8 Este 21 Este 0 955.4 0.3 41
2019-07-31 03:00:00 21.9 12 Este 24 Este 0 955.3 0.8 37
2019-07-31 02:00:00 23.4 9 Nordeste 21 Nordeste 0 955.3 1 32
2019-07-31 01:00:00 23.6 10 Nordeste 24 Norte 0 955.1 1.2 24
2019-07-31 00:00:00 24.7 13 Norte 21 Norte 0 954.5 1 21
2019-07-30 23:00:00 27.3 2 Norte 10 Nordeste 0 954.3 0.8 14
2019-07-30 22:00:00 28.6 9 Nordeste 12 Nordeste 0 953.9 0.4 14
2019-07-30 21:00:00 31.3 8 Norte 16 Nordeste 0 953.5 -0.5 13
2019-07-30 20:00:00 32.4 8 Nordeste 20 Noroeste 0 953.5 -1.1 12
2019-07-30 19:00:00 32.9 13 Nordeste 24 Norte 0 953.5 -1.7 13
2019-07-30 18:00:00 32.4 12 Nordeste 23 Este 0 954 -1.9 13
2019-07-30 17:00:00 31.9 10 Oeste 28 Noroeste 0 954.6 -1.8 14
2019-07-30 16:00:00 31.5 8 Nordeste 28 Oeste 0 955.2 -1.7 15
2019-07-30 15:00:00 30.4 9 Noroeste 23 Norte 0 955.9 -1.3 19
2019-07-30 14:00:00 29.3 6 Noroeste 25 Noroeste 0 956.4 -1.1 23
2019-07-30 13:00:00 27.3 9 Noroeste 21 Nordeste 0 956.9 -0.6 25
2019-07-30 12:00:00 26.3 6 Sudeste 20 Nordeste 0 957.2 0.1 27
2019-07-30 11:00:00 23.6 9 Nordeste 25 Norte 0 957.5 0.8 32
2019-07-30 10:00:00 21.2 17 Norte 31 Norte 0 957.5 1.3 37
2019-07-30 09:00:00 18.6 17 Norte 26 Nordeste 0 957.1 1.4 43
2019-07-30 08:00:00 17.1 6 Nordeste 12 Este 0 956.7 1.2 46
2019-07-30 07:00:00 17.6 6 Este 18 Norte 0 956.2 0.9 44
2019-07-30 06:00:00 18.3 12 Norte 28 Norte 0 955.7 0.6 42
2019-07-30 05:00:00 19.1 19 Norte 37 Norte 0 955.5 0.6 39
2019-07-30 04:00:00 20.2 17 Norte 36 Nordeste 0 955.3 0.8 37
2019-07-30 03:00:00 21.1 4 Sudoeste 22 Noroeste 0 955.1 0.9 33
2019-07-30 02:00:00 21.9 4 Sudoeste 20 Norte 0 954.9 1.3 29
2019-07-30 01:00:00 23.6 16 Norte 27 Norte 0 954.5 1.9 25
2019-07-30 00:00:00 24.8 17 Noroeste 29 Norte 0 954.2 2.3 25
2019-07-29 23:00:00 26.5 17 Noroeste 29 Noroeste 0 953.6 2.1 21
2019-07-29 22:00:00 28 18 Noroeste 39 Oeste 0 952.6 1.4 22
2019-07-29 21:00:00 30.4 26 Noroeste 40 Oeste 0 951.9 0.8 19
2019-07-29 20:00:00 31.8 30 Oeste 47 Oeste 0 951.5 0.1 19
2019-07-29 19:00:00 32.8 28 Oeste 44 Oeste 0 951.2 -0.5 20
2019-07-29 18:00:00 33.4 28 Noroeste 46 Oeste 0 951.1 -0.8 17
2019-07-29 17:00:00 33.6 26 Noroeste 45 Noroeste 0 951.4 -0.8 16
2019-07-29 16:00:00 33.6 23 Oeste 47 Oeste 0 951.7 -0.7 16
2019-07-29 15:00:00 33.2 22 Oeste 40 Oeste 0 951.9 -0.6 15
2019-07-29 14:00:00 32 22 Oeste 36 Oeste 0 952.2 -0.5 23
2019-07-29 13:00:00 31.2 19 Oeste 31 Noroeste 0 952.4 -0.2 27
2019-07-29 12:00:00 30.1 14 Noroeste 23 Oeste 0 952.5 -0.1 30
2019-07-29 11:00:00 28 7 Oeste 17 Noroeste 0 952.7 0.5 35
2019-07-29 10:00:00 25.8 9 Noroeste 14 Noroeste 0 952.6 0.8 39
2019-07-29 09:00:00 23.4 4 Oeste 6 Oeste 0 952.6 1.1 44
2019-07-29 08:00:00 20.9 3 Noroeste 8 Oeste 0 952.2 0.8 49
2019-07-29 07:00:00 21.2 5 Oeste 9 Oeste 0 951.8 0.4 48
2019-07-29 06:00:00 21.5 6 Noroeste 8 Noroeste 0 951.5 0.2 47
2019-07-29 05:00:00 22.2 0 Calma 10 Oeste 0 951.4 0 44
2019-07-29 04:00:00 22.8 5 Oeste 9 Oeste 0 951.4 0 42
2019-07-29 03:00:00 23.5 4 Noroeste 5 Oeste 0 951.3 0.1 38
2019-07-29 02:00:00 24.3 4 Noroeste 6 Noroeste 0 951.4 0.3 33
2019-07-29 01:00:00 24.9 4 Oeste 6 Oeste 0 951.4 1 32
2019-07-29 00:00:00 25.7 2 Sudoeste 4 Noroeste 0 951.2 1.1 30
2019-07-28 23:00:00 27 4 Oeste 11 Oeste 0 951.1 1.3 27
2019-07-28 22:00:00 28.3 8 Noroeste 17 Noroeste 0 950.4 0.6 23
2019-07-28 21:00:00 30.8 13 Oeste 23 Noroeste 0 950.1 -0.1 21
2019-07-28 20:00:00 31.8 14 Oeste 27 Oeste 0 949.8 -0.9 20
2019-07-28 19:00:00 32 13 Noroeste 29 Noroeste 0 949.8 -1.7 21
2019-07-28 18:00:00 32 16 Noroeste 27 Noroeste 0 950.2 -1.7 21
2019-07-28 17:00:00 31.2 11 Noroeste 30 Oeste 0 950.7 -1.7 23
2019-07-28 16:00:00 30.4 17 Oeste 31 Noroeste 0 951.5 -1.5 25
2019-07-28 15:00:00 29 14 Noroeste 24 Oeste 0 951.9 -1.6 29
2019-07-28 14:00:00 28.1 9 Oeste 23 Oeste 0 952.4 -1.3 31
2019-07-28 13:00:00 26.7 7 Nordeste 17 Sudeste 0 953 -0.8 33
2019-07-28 12:00:00 25 9 Sudeste 23 Sudeste 0 953.5 -0.2 36
2019-07-28 11:00:00 23.1 13 Este 22 Este 0 953.7 0.2 41
2019-07-28 10:00:00 20.8 16 Sudeste 26 Sudeste 0 953.8 0.7 47
2019-07-28 09:00:00 19.7 13 Este 24 Este 0 953.7 1.3 51
2019-07-28 08:00:00 17.1 13 Este 19 Este 0 953.5 1.2 62
2019-07-28 07:00:00 17.5 12 Este 22 Nordeste 0 953.1 0.8 61
2019-07-28 06:00:00 18.8 13 Nordeste 22 Nordeste 0 952.4 0.2 58
2019-07-28 05:00:00 19.3 9 Nordeste 12 Nordeste 0 952.3 0.3 57
2019-07-28 04:00:00 19.9 7 Nordeste 10 Nordeste 0 952.3 0.5 52
2019-07-28 03:00:00 21.1 6 Nordeste 12 Este 0 952.2 0.7 48
2019-07-28 02:00:00 21.4 4 Norte 9 Noroeste 0 952 0.8 51
2019-07-28 01:00:00 22.5 5 Noroeste 14 Oeste 0 951.8 1.3 48
2019-07-28 00:00:00 23 9 Oeste 20 Oeste 0 951.5 1.6 47
2019-07-27 23:00:00 24.1 15 Oeste 26 Oeste 0 951.2 1.8 44
2019-07-26 12:00:00 27.9 17 Oeste 28 Oeste 0 953.3 -0.2 45
2019-07-26 11:00:00 26.1 15 Oeste 31 Oeste 0 953.5 0.5 52
2019-07-26 10:00:00 24.7 15 Oeste 26 Noroeste 0 953.5 0.5 57
2019-07-26 09:00:00 23.3 17 Noroeste 31 Oeste 0 953.5 0.5 61
2019-07-26 08:00:00 23.3 15 Oeste 20 Oeste 0 953 -0.4 59
2019-07-26 07:00:00 23.7 10 Oeste 21 Oeste 0 953 -0.5 57
2019-07-26 06:00:00 24.3 12 Oeste 26 Oeste 0 953 -0.7 55
2019-07-26 05:00:00 25 11 Oeste 26 Oeste 0 953.4 0 50
2019-07-26 04:00:00 25.4 18 Oeste 28 Oeste 0 953.5 0.3 50
2019-07-26 03:00:00 26.5 14 Oeste 32 Oeste 0 953.7 0.6 42
2019-07-26 02:00:00 27.3 6 Oeste 15 Oeste 0 953.4 0.5 34
2019-07-26 01:00:00 27.6 3 Oeste 7 Oeste 0 953.2 0.8 32
2019-07-26 00:00:00 28.4 6 Noroeste 14 Oeste 0 953.1 1 29
2019-07-25 23:00:00 29.8 8 Noroeste 23 Oeste 0 952.9 1 26
2019-07-25 22:00:00 31.1 12 Noroeste 30 Noroeste 0 952.4 0.5 24
2019-07-25 21:00:00 33.3 19 Noroeste 34 Oeste 0 952.1 0.2 21
2019-07-25 20:00:00 34.8 22 Noroeste 45 Noroeste 0 951.9 -0.6 20
2019-07-25 19:00:00 34.9 27 Noroeste 44 Noroeste 0 951.9 -1 21
2019-07-25 18:00:00 38 16 Oeste 41 Oeste 0 951.9 -1.8 16
2019-07-25 17:00:00 37.9 13 Oeste 38 Oeste 0 952.5 -1.6 16
2019-07-25 16:00:00 37.9 15 Sudoeste 46 Oeste 0 952.9 -1.7 17
2019-07-25 15:00:00 36.7 20 Oeste 45 Oeste 0 953.7 -1.3 18
2019-07-25 14:00:00 36 18 Sudoeste 31 Sudoeste 0 954.1 -1.2 20
2019-07-25 13:00:00 34.9 10 Sudoeste 21 Sur 0 954.6 -0.7 23
2019-07-25 12:00:00 32.7 8 Noroeste 20 Oeste 0 955 -0.1 25
2019-07-25 11:00:00 30.8 12 Noroeste 20 Oeste 0 955.3 0.7 28
2019-07-25 10:00:00 29.2 9 Oeste 22 Oeste 0 955.3 1 31
2019-07-25 09:00:00 26.4 0 Calma 9 Noroeste 0 955.1 1 40
2019-07-25 08:00:00 23.7 4 Noroeste 12 Noroeste 0 954.6 0.6 45
2019-07-25 07:00:00 24.3 9 Noroeste 13 Noroeste 0 954.3 0.5 42
2019-07-25 06:00:00 25 6 Noroeste 15 Oeste 0 954.1 0.4 44
2019-07-25 05:00:00 26.7 14 Oeste 21 Noroeste 0 954 0.7 39
2019-07-25 04:00:00 26.2 8 Oeste 15 Oeste 0 953.8 0.3 42
2019-07-25 03:00:00 26.8 3 Sur 10 Este 0 953.7 0.8 37
2019-07-25 02:00:00 28 5 Sudeste 11 Nordeste 0 953.3 0.3 33
2019-07-25 01:00:00 28.7 6 Nordeste 23 Sudeste 0 953.5 0.9 34
2019-07-25 00:00:00 30 5 Noroeste 6 Noroeste 0 952.9 0.5 34
2019-07-24 23:00:00 31.2 5 Noroeste 14 Oeste 0 953 0.9 32
2019-07-24 22:00:00 33.2 6 Oeste 15 Sudoeste 0 952.6 0.4 28
2019-07-24 21:00:00 36.1 12 Sudoeste 30 Sudoeste 0 952.4 -0.3 23
2019-07-24 20:00:00 38.5 9 Sudoeste 27 Sur 0 952.1 -1.2 19
2019-07-24 19:00:00 38.5 11 Sur 23 Sur 0 952.2 -1.7 18
2019-07-24 18:00:00 38.9 12 Sudoeste 31 Sudoeste 0 952.7 -2.2 19
2019-07-24 17:00:00 38.8 12 Sur 30 Este 0 953.3 -2.4 18
2019-07-24 16:00:00 38.1 10 Norte 21 Nordeste 0 953.9 -2.3 21
2019-07-24 15:00:00 36.4 6 Norte 17 Nordeste 0 954.9 -1.6 24
2019-07-24 14:00:00 34.6 9 Sur 19 Sudeste 0 955.7 -1.1 26
2019-07-24 13:00:00 32.4 11 Sudeste 19 Sudeste 0 956.2 -0.6 31
2019-07-24 12:00:00 30.2 11 Sudeste 18 Este 0 956.5 -0.2 35
2019-07-24 11:00:00 27.9 10 Sudeste 21 Sudeste 0 956.8 0.2 41
2019-07-24 10:00:00 25.9 12 Sudeste 19 Sudeste 0 956.8 0.3 45
2019-07-24 09:00:00 23.2 11 Sudeste 16 Este 0 956.7 0.4 60
2019-07-24 08:00:00 20.9 9 Este 14 Este 0 956.6 0.3 71
2019-07-24 07:00:00 20.4 3 Sudeste 6 Este 0 956.5 0 71
2019-07-24 06:00:00 20.7 3 Sudeste 5 Sudeste 0 956.3 -0.1 71
2019-07-24 05:00:00 21.2 0 Calma 12 Este 0 956.3 -0.3 67
2019-07-24 04:00:00 21.4 7 Este 13 Nordeste 0 956.5 -0.3 71
2019-07-24 03:00:00 23 4 Norte 22 Este 0 956.4 -0.3 58
2019-07-24 02:00:00 24.5 15 Este 23 Este 0 956.6 -1.5 53
2019-07-24 01:00:00 24.2 17 Este 30 Sudeste 0 956.8 -2.3 54
2019-07-24 00:00:00 22.6 20 Este 58 Este 2.6 956.7 -0.3 65
2019-07-23 23:00:00 22.5 25 Este 35 Este 0.8 958.1 3.8 64
2019-07-23 22:00:00 24 16 Oeste 30 Norte 1.4 959.1 3.8 59
2019-07-23 21:00:00 29.8 10 Norte 27 Oeste 0 957 4 32
2019-07-23 20:00:00 30.2 20 Noroeste 50 Oeste 1 954.3 0.3 30
2019-07-23 19:00:00 28.4 30 Sudoeste 89 Sur 0.8 955.3 0.3 44
2019-07-23 18:00:00 40 16 Oeste 28 Este 0 953 -2.7 14
2019-07-23 17:00:00 38.5 6 Este 28 Este 0 954 -2.5 15
2019-07-23 16:00:00 38.5 15 Sudeste 25 Sudeste 0 955 -2.4 14
2019-07-23 15:00:00 38.2 14 Este 31 Este 0 955.7 -2.3 14
2019-07-23 14:00:00 35.8 12 Este 28 Este 0 956.5 -2.1 17
2019-07-23 13:00:00 33.6 12 Este 22 Este 0 957.4 -0.9 21
2019-07-23 12:00:00 30.8 9 Norte 17 Norte 0 958 -0.6 29
2019-07-23 11:00:00 28.8 7 Sudoeste 22 Este 0 958.6 -0.1 31
2019-07-23 10:00:00 26.8 15 Sudeste 23 Sudeste 0 958.3 -0.7 35
2019-07-23 09:00:00 23.8 12 Este 17 Sudeste 0 958.6 0.5 47
2019-07-23 08:00:00 22.6 9 Nordeste 22 Nordeste 0 958.7 0.5 56
2019-07-23 07:00:00 22.3 13 Norte 24 Este 0 959 1.5 55
2019-07-23 06:00:00 22.1 15 Este 31 Este 1 958.1 0.5 55
2019-07-23 05:00:00 24.7 12 Este 37 Este 0 958.2 1.2 41
2019-07-23 04:00:00 28.2 20 Este 37 Este 0 957.5 0.8 23
2019-07-23 03:00:00 29.4 6 Sudeste 37 Sur 0 957.6 0.9 17
2019-07-23 02:00:00 29.6 18 Este 31 Este 0 957 0.5 17
2019-07-23 01:00:00 30.6 20 Este 37 Este 0 956.7 0.8 16
2019-07-23 00:00:00 31.8 22 Este 35 Este 0 956.7 1.4 14
2019-07-22 23:00:00 33.2 19 Este 35 Este 0 956.5 1.3 14
2019-07-22 22:00:00 34.9 23 Sudeste 40 Sudeste 0 955.9 0.3 14
2019-07-22 21:00:00 36.7 25 Sudeste 41 Sudeste 0 955.3 -1 15
2019-07-22 20:00:00 37.9 16 Sudeste 26 Este 0 955.2 -1.8 16
2019-07-22 19:00:00 40 13 Sur 28 Sur 0 955.6 -2.1 14
2019-07-22 18:00:00 39.9 13 Sur 32 Sudeste 0 956.3 -2.2 16
2019-07-22 17:00:00 39.6 13 Sudeste 37 Este 0 957 -2.1 17
2019-07-22 16:00:00 38.6 19 Este 36 Este 0 957.7 -1.9 20
2019-07-22 15:00:00 37.4 17 Este 35 Este 0 958.5 -1.7 22
2019-07-22 14:00:00 36 21 Sudeste 34 Este 0 959.1 -1.4 24
2019-07-22 13:00:00 34.6 19 Sudeste 33 Este 0 959.6 -1 26
2019-07-22 12:00:00 32.3 19 Este 34 Este 0 960.2 -0.4 28
2019-07-22 11:00:00 29.7 20 Este 37 Sudeste 0 960.5 0.2 32
2019-07-22 10:00:00 26.9 20 Este 33 Este 0 960.6 0.4 40
2019-07-22 09:00:00 25 19 Este 32 Este 0 960.6 0.7 43
2019-07-22 08:00:00 23.5 16 Este 27 Este 0 960.3 0.4 42
2019-07-22 07:00:00 23.7 19 Este 30 Este 0 960.2 0.6 42
2019-07-22 06:00:00 24.3 19 Este 36 Este 0 959.9 0.9 41
2019-07-22 05:00:00 25.1 16 Este 42 Este 0 959.9 0.5 39
2019-07-22 04:00:00 26.2 24 Este 38 Este 0 959.6 0.2 37
2019-07-22 03:00:00 27.8 26 Sudeste 52 Sudeste 0 959 0.3 31
2019-07-22 02:00:00 28.6 26 Este 37 Este 0 959.4 1.3 33
2019-07-22 01:00:00 29.6 23 Este 47 Sudeste 0 959.4 2.3 33
2019-07-22 00:00:00 31.3 24 Sudeste 41 Sudeste 0 958.7 2.2 33
2019-07-21 23:00:00 33.4 15 Este 30 Este 0 958.1 2 26
2019-07-21 22:00:00 33.6 11 Este 28 Norte 0 957.1 1.2 26
2019-07-21 21:00:00 35.8 6 Este 12 Este 0 956.5 0.5 22
2019-07-21 20:00:00 36.8 10 Este 38 Sudeste 0 956.1 -0.5 21
2019-07-21 19:00:00 39.7 13 Este 25 Este 0 955.9 -1.4 18
2019-07-21 18:00:00 40.1 10 Este 23 Norte 0 956 -1.9 17
2019-07-21 17:00:00 40.2 6 Nordeste 18 Este 0 956.6 -1.7 17
2019-07-21 16:00:00 39.2 8 Este 19 Sur 0 957.3 -1.4 18
2019-07-21 15:00:00 38.1 6 Este 21 Sudeste 0 957.9 -1 21
2019-07-21 14:00:00 36 9 Sudeste 20 Sudeste 0 958.3 -0.3 25
2019-07-21 13:00:00 34.6 9 Sudeste 19 Este 0 958.7 0.1 28
2019-07-21 12:00:00 32.4 12 Este 20 Sudeste 0 958.9 0.6 31
2019-07-21 11:00:00 29.8 11 Este 21 Sudeste 0 958.6 0.8 34
2019-07-21 10:00:00 27.4 15 Este 28 Este 0 958.6 1.4 38
2019-07-21 09:00:00 25.9 16 Este 25 Este 0 958.3 1.4 41
2019-07-21 08:00:00 24.5 10 Este 25 Este 0 957.8 1.2 41
2019-07-21 07:00:00 24.5 16 Este 28 Este 0 957.2 0.8 36
2019-07-21 06:00:00 25.1 18 Este 26 Este 0 956.9 0.6 35
2019-07-21 05:00:00 26.2 15 Este 25 Este 0 956.6 0.2 35
2019-07-21 04:00:00 27.3 13 Este 18 Este 0 956.4 0 35
2019-07-21 03:00:00 28.8 13 Este 22 Sudeste 0 956.3 0.8 34
2019-07-21 02:00:00 29.2 12 Este 17 Este 0 956.4 1.1 33
2019-07-21 01:00:00 30.1 9 Este 23 Este 0 956.4 2.1 27
2019-07-21 00:00:00 31.4 5 Oeste 12 Noroeste 0 955.5 1.8 25
2019-07-20 23:00:00 32.9 8 Noroeste 20 Oeste 0 955.3 2 24
2019-07-20 22:00:00 34.6 14 Noroeste 29 Noroeste 0 954.3 1.2 22
2019-07-20 21:00:00 36.5 19 Noroeste 29 Noroeste 0 953.7 0.4 20
2019-07-20 20:00:00 38.1 17 Noroeste 33 Noroeste 0 953.3 -0.2 19
2019-07-20 19:00:00 39.4 8 Sudoeste 21 Noroeste 0 953.1 -0.8 18
2019-07-20 18:00:00 39.7 12 Oeste 25 Oeste 0 953.3 -1.1 17
2019-07-20 17:00:00 39.3 14 Sudeste 25 Noroeste 0 953.5 -1.3 18
2019-07-20 16:00:00 39 15 Oeste 27 Sudoeste 0 953.9 -1.2 18
2019-07-20 15:00:00 37.7 11 Oeste 21 Oeste 0 954.4 -1 20
2019-07-20 14:00:00 35.7 7 Sudoeste 22 Sur 0 954.8 -0.4 23
2019-07-20 13:00:00 33.9 12 Sudeste 21 Este 0 955.1 -0.1 27
2019-07-20 12:00:00 31.7 11 Sudeste 18 Este 0 955.4 0.6 31
2019-07-20 11:00:00 29.1 8 Nordeste 17 Este 0 955.2 1.1 36
2019-07-20 10:00:00 26.6 12 Sudeste 22 Este 0 955.2 1.7 41
2019-07-20 09:00:00 24.8 15 Este 22 Este 0 954.8 1.7 44
2019-07-20 08:00:00 23.1 10 Este 24 Este 0 954.1 1.2 46
2019-07-20 07:00:00 23.3 14 Este 27 Este 0 953.5 1.1 43
2019-07-20 06:00:00 24 17 Este 26 Este 0 953.1 0.8 40
2019-07-20 05:00:00 24.6 11 Nordeste 19 Nordeste 0 952.9 0.5 36
2019-07-20 04:00:00 25.9 14 Este 26 Este 0 952.4 -0.1 33
2019-07-20 03:00:00 27.2 17 Este 26 Este 0 952.3 0 30
2019-07-20 02:00:00 28.6 13 Este 19 Este 0 952.4 0.3 26
2019-07-20 01:00:00 31 10 Este 15 Este 0 952.5 0.9 23
2019-07-20 00:00:00 31.7 6 Este 22 Este 0 952.3 1.1 20
2019-07-19 23:00:00 32.9 8 Norte 14 Noroeste 0 952.1 0.9 22
2019-07-19 22:00:00 34.4 11 Norte 16 Norte 0 951.6 0.4 20
2019-07-19 21:00:00 37.5 5 Norte 12 Oeste 0 951.2 -0.4 19
2019-07-19 20:00:00 37.9 6 Sudoeste 17 Noroeste 0 951.2 -0.9 18
2019-07-19 19:00:00 38.8 10 Oeste 24 Oeste 0 951.2 -1.4 17
2019-07-19 18:00:00 39.1 8 Oeste 23 Este 0 951.6 -1.9 18
2019-07-19 17:00:00 38.4 7 Este 24 Sudeste 0 952.1 -2.3 18
2019-07-19 16:00:00 38.3 6 Nordeste 18 Oeste 0 952.6 -2.4 19
2019-07-19 15:00:00 37.6 8 Oeste 19 Sur 0 953.5 -2 20
2019-07-19 14:00:00 36.3 8 Sudeste 20 Este 0 954.4 -1.3 22
2019-07-19 13:00:00 33.6 8 Sudeste 23 Este 0 955 -0.8 26
2019-07-19 12:00:00 31.5 11 Sudeste 21 Este 0 955.5 0 29
2019-07-19 11:00:00 28.5 14 Este 23 Este 0 955.7 0.6 34
2019-07-19 10:00:00 26.2 15 Este 27 Este 0 955.8 0.9 39
2019-07-19 09:00:00 24.1 17 Este 24 Este 0 955.5 1 43
2019-07-19 08:00:00 22.2 13 Este 26 Este 0 955.1 0.6 50
2019-07-19 07:00:00 22.6 13 Este 26 Este 0 954.9 0.5 49
2019-07-19 06:00:00 23.8 15 Este 30 Este 0 954.5 0 45
2019-07-19 05:00:00 25.3 10 Nordeste 22 Nordeste 0 954.5 0 42
2019-07-19 04:00:00 26.6 13 Nordeste 19 Nordeste 0 954.4 0.1 39
2019-07-19 03:00:00 27.3 10 Nordeste 15 Nordeste 0 954.5 0.6 36
2019-07-19 02:00:00 27.9 6 Noroeste 14 Noroeste 0 954.5 1 29
2019-07-19 01:00:00 28.9 9 Noroeste 18 Oeste 0 954.3 1.4 29
2019-07-19 00:00:00 29.9 3 Sur 5 Sudoeste 0 953.9 1.2 26